createdAt,value
2019-02-20T00:00:00.576Z,16.23
2019-02-20T00:02:04.715Z,16.40
2019-02-20T00:04:09.179Z,23.97
2019-02-20T00:06:13.229Z,10.50
2019-02-20T00:08:17.627Z,26.00
2019-02-20T00:10:21.639Z,21.50
2019-02-20T00:12:26.119Z,27.03
2019-02-20T00:14:29.988Z,17.97
2019-02-20T00:16:34.759Z,20.63
2019-02-20T00:18:40.050Z,19.43
2019-02-20T00:20:44.195Z,15.77
2019-02-20T00:22:48.880Z,13.10
2019-02-20T00:24:54.210Z,9.40
2019-02-20T00:26:58.693Z,16.67
2019-02-20T00:29:02.687Z,9.10
2019-02-20T00:31:06.703Z,14.73
2019-02-20T00:33:10.870Z,13.57
2019-02-20T00:35:15.219Z,23.03
2019-02-20T00:37:19.683Z,18.27
2019-02-20T00:39:23.819Z,25.70
2019-02-20T00:41:27.702Z,12.73
2019-02-20T00:43:32.523Z,24.33
2019-02-20T00:45:59.011Z,15.07
2019-02-20T00:48:22.571Z,26.33
2019-02-20T00:50:28.047Z,24.63
2019-02-20T00:52:50.143Z,13.70
2019-02-20T00:54:54.380Z,18.60
2019-02-20T00:56:59.295Z,26.90
2019-02-20T00:59:03.300Z,21.47
2019-02-20T01:01:07.226Z,19.30
2019-02-20T01:03:11.656Z,23.03
2019-02-20T01:05:16.216Z,26.87
2019-02-20T01:07:20.883Z,20.67
2019-02-20T01:09:24.980Z,17.13
2019-02-20T01:11:29.504Z,13.27
2019-02-20T01:13:33.692Z,27.80
2019-02-20T01:15:38.248Z,18.60
2019-02-20T01:17:42.190Z,24.07
2019-02-20T01:19:46.783Z,12.93
2019-02-20T01:21:50.608Z,16.37
2019-02-20T01:23:55.195Z,13.37
2019-02-20T01:25:59.633Z,22.63
2019-02-20T01:28:04.070Z,8.43
2019-02-20T01:30:09.235Z,8.70
2019-02-20T01:32:13.333Z,21.80
2019-02-20T01:34:17.374Z,8.03
2019-02-20T01:36:21.788Z,18.07
2019-02-20T01:38:26.210Z,15.07
2019-02-20T01:40:30.881Z,12.40
2019-02-20T01:42:35.383Z,21.50
2019-02-20T01:44:39.456Z,12.00
2019-02-20T01:46:43.723Z,12.10
2019-02-20T01:48:48.134Z,19.80
2019-02-20T01:50:52.727Z,7.53
2019-02-20T01:52:57.126Z,12.67
2019-02-20T01:55:01.799Z,14.10
2019-02-20T01:57:05.760Z,14.80
2019-02-20T01:59:10.309Z,15.93
2019-02-20T02:01:15.327Z,5.63
2019-02-20T02:03:19.455Z,13.10
2019-02-20T02:05:24.631Z,11.60
2019-02-20T02:07:29.531Z,19.80
2019-02-20T02:09:33.930Z,21.03
2019-02-20T02:11:38.743Z,17.50
2019-02-20T02:13:42.868Z,5.33
2019-02-20T02:15:47.310Z,14.27
2019-02-20T02:17:51.519Z,14.20
2019-02-20T02:19:55.598Z,12.83
2019-02-20T02:21:59.996Z,10.40
2019-02-20T02:24:03.987Z,12.57
2019-02-20T02:26:10.846Z,10.87
2019-02-20T02:28:14.250Z,10.53
2019-02-20T02:30:19.100Z,14.73
2019-02-20T02:32:23.226Z,19.83
2019-02-20T02:34:27.776Z,13.80
2019-02-20T02:36:35.542Z,8.73
2019-02-20T02:38:40.174Z,9.10
2019-02-20T02:40:44.541Z,9.50
2019-02-20T02:42:48.898Z,14.93
2019-02-20T02:44:52.878Z,18.57
2019-02-20T02:46:57.344Z,11.90
2019-02-20T02:49:01.205Z,13.00
2019-02-20T02:51:08.045Z,18.90
2019-02-20T02:53:12.482Z,9.97
2019-02-20T02:55:17.002Z,9.40
2019-02-20T02:57:21.473Z,8.70
2019-02-20T02:59:25.368Z,18.93
2019-02-20T03:01:30.803Z,25.73
2019-02-20T03:03:34.978Z,18.40
2019-02-20T03:05:39.416Z,14.57
2019-02-20T03:07:43.647Z,13.70
2019-02-20T03:09:47.767Z,22.53
2019-02-20T03:11:51.905Z,11.43
2019-02-20T03:13:56.402Z,18.10
2019-02-20T03:16:01.360Z,11.60
2019-02-20T03:18:05.802Z,9.50
2019-02-20T03:20:10.140Z,12.33
2019-02-20T03:22:14.215Z,15.27
2019-02-20T03:24:19.134Z,20.93
2019-02-20T03:26:23.715Z,19.50
2019-02-20T03:28:28.678Z,13.67
2019-02-20T03:30:33.763Z,15.73
2019-02-20T03:32:37.892Z,14.00
2019-02-20T03:34:42.318Z,9.73
2019-02-20T03:36:46.751Z,24.10
2019-02-20T03:38:50.574Z,9.93
2019-02-20T03:40:54.764Z,18.53
2019-02-20T03:42:59.187Z,17.23
2019-02-20T03:45:03.173Z,18.57
2019-02-20T03:47:07.079Z,19.53
2019-02-20T03:49:11.055Z,23.93
2019-02-20T03:51:15.494Z,18.83
2019-02-20T03:53:19.751Z,20.03
2019-02-20T03:55:24.251Z,25.03
2019-02-20T03:57:28.871Z,23.90
2019-02-20T03:59:32.986Z,15.80
2019-02-20T04:01:37.430Z,26.30
2019-02-20T04:03:41.276Z,24.77
2019-02-20T04:05:45.669Z,30.37
2019-02-20T04:07:49.855Z,20.83
2019-02-20T04:09:53.715Z,28.73
2019-02-20T04:11:57.564Z,16.10
2019-02-20T04:14:01.427Z,25.80
2019-02-20T04:16:06.549Z,27.67
2019-02-20T04:18:11.187Z,20.97
2019-02-20T04:20:15.055Z,21.40
2019-02-20T04:22:19.512Z,26.23
2019-02-20T04:24:23.655Z,23.40
2019-02-20T04:26:27.534Z,25.40
2019-02-20T04:28:32.563Z,22.63
2019-02-20T04:30:36.480Z,35.43
2019-02-20T04:32:40.409Z,33.23
2019-02-20T04:34:44.566Z,31.10
2019-02-20T04:36:48.442Z,13.53
2019-02-20T04:38:53.176Z,21.07
2019-02-20T04:40:57.553Z,30.10
2019-02-20T04:43:01.728Z,33.13
2019-02-20T04:45:06.621Z,27.73
2019-02-20T04:47:11.364Z,28.03
2019-02-20T04:49:15.477Z,20.90
2019-02-20T04:51:19.919Z,36.87
2019-02-20T04:53:24.123Z,19.87
2019-02-20T04:55:28.601Z,24.77
2019-02-20T04:57:33.153Z,34.73
2019-02-20T04:59:37.787Z,34.60
2019-02-20T05:01:41.715Z,22.30
2019-02-20T05:03:45.655Z,14.23
2019-02-20T05:05:49.627Z,30.47
2019-02-20T05:08:13.552Z,19.87
2019-02-20T05:10:17.396Z,25.23
2019-02-20T05:12:21.637Z,24.60
2019-02-20T05:14:25.593Z,24.57
2019-02-20T05:16:30.293Z,23.07
2019-02-20T05:18:35.255Z,24.60
2019-02-20T05:20:39.401Z,27.67
2019-02-20T05:22:43.553Z,25.30
2019-02-20T05:24:47.770Z,21.53
2019-02-20T05:26:52.206Z,22.60
2019-02-20T05:28:56.880Z,20.20
2019-02-20T05:31:01.528Z,31.03
2019-02-20T05:33:06.244Z,25.97
2019-02-20T05:35:10.679Z,26.90
2019-02-20T05:37:15.364Z,24.07
2019-02-20T05:39:19.565Z,33.67
2019-02-20T05:41:24.164Z,14.53
2019-02-20T05:43:28.082Z,28.93
2019-02-20T05:45:31.973Z,27.40
2019-02-20T05:47:36.388Z,19.93
2019-02-20T05:49:40.233Z,18.20
2019-02-20T05:51:44.707Z,37.60
2019-02-20T05:53:48.660Z,14.70
2019-02-20T05:55:53.089Z,30.23
2019-02-20T05:57:57.216Z,26.07
2019-02-20T06:00:01.693Z,26.20
2019-02-20T06:02:05.537Z,16.93
2019-02-20T06:04:09.972Z,30.43
2019-02-20T06:06:14.373Z,29.57
2019-02-20T06:08:18.811Z,21.87
2019-02-20T06:10:23.143Z,21.07
2019-02-20T06:12:27.535Z,34.60
2019-02-20T06:14:31.943Z,18.97
2019-02-20T06:16:36.124Z,53.83
2019-02-20T06:18:40.686Z,20.87
2019-02-20T06:20:45.107Z,36.70
2019-02-20T06:22:50.028Z,40.30
2019-02-20T06:24:54.967Z,26.33
2019-02-20T06:26:59.375Z,26.03
2019-02-20T06:29:03.678Z,19.67
2019-02-20T06:31:08.783Z,18.00
2019-02-20T06:33:13.211Z,30.00
2019-02-20T06:35:17.616Z,17.37
2019-02-20T06:37:21.481Z,24.03
2019-02-20T06:39:25.332Z,30.93
2019-02-20T06:41:38.557Z,35.93
2019-02-20T06:43:35.835Z,23.33
2019-02-20T06:45:40.039Z,39.60
2019-02-20T06:47:44.155Z,17.53
2019-02-20T06:49:48.287Z,32.47
2019-02-20T06:51:52.984Z,27.03
2019-02-20T06:53:58.177Z,26.03
2019-02-20T06:56:02.203Z,37.03
2019-02-20T06:58:06.835Z,20.97
2019-02-20T07:00:12.007Z,16.83
2019-02-20T07:02:16.435Z,24.90
2019-02-20T07:04:20.288Z,27.50
2019-02-20T07:06:32.968Z,28.13
2019-02-20T07:09:15.172Z,27.40
2019-02-20T07:11:47.471Z,20.70
2019-02-20T07:14:04.275Z,34.30
2019-02-20T07:16:49.663Z,26.60
2019-02-20T07:19:20.809Z,30.60
2019-02-20T07:21:51.740Z,34.40
2019-02-20T07:24:31.628Z,28.80
2019-02-20T07:27:17.126Z,21.57
2019-02-20T07:29:44.142Z,22.30
2019-02-20T07:31:48.658Z,31.10
2019-02-20T07:33:52.827Z,37.33
2019-02-20T07:35:57.307Z,33.97
2019-02-20T07:38:01.443Z,24.90
2019-02-20T07:40:08.212Z,17.60
2019-02-20T07:42:19.272Z,24.20
2019-02-20T07:44:24.000Z,27.93
2019-02-20T07:46:31.768Z,32.90
2019-02-20T07:48:35.655Z,17.93
2019-02-20T07:52:46.320Z,22.07
2019-02-20T07:54:50.692Z,18.43
2019-02-20T07:56:54.831Z,36.47
2019-02-20T07:58:59.034Z,26.70
2019-02-20T08:01:03.654Z,38.37
2019-02-20T08:03:08.463Z,30.30
2019-02-20T08:05:12.908Z,37.97
2019-02-20T08:07:17.839Z,30.50
2019-02-20T08:09:22.470Z,29.77
2019-02-20T08:11:27.447Z,15.83
2019-02-20T08:13:39.040Z,17.47
2019-02-20T08:15:37.911Z,10.73
2019-02-20T08:17:42.068Z,29.80
2019-02-20T08:19:46.199Z,36.90
2019-02-20T08:21:50.589Z,31.47
2019-02-20T08:23:55.412Z,19.37
2019-02-20T08:25:59.921Z,19.70
2019-02-20T08:28:04.365Z,21.90
2019-02-20T08:30:11.610Z,14.33
2019-02-20T08:32:16.683Z,31.83
2019-02-20T08:34:20.848Z,32.90
2019-02-20T08:36:25.211Z,32.97
2019-02-20T08:38:29.763Z,17.80
2019-02-20T08:40:34.847Z,34.60
2019-02-20T08:42:40.567Z,33.90
2019-02-20T08:44:44.706Z,46.13
2019-02-20T08:46:49.311Z,30.17
2019-02-20T08:48:53.203Z,25.83
2019-02-20T08:50:57.872Z,28.03
2019-02-20T08:53:01.988Z,24.83
2019-02-20T08:55:07.411Z,18.70
2019-02-20T08:57:11.993Z,24.23
2019-02-20T08:59:15.839Z,32.23
2019-02-20T09:01:20.294Z,26.97
2019-02-20T09:03:24.688Z,27.33
2019-02-20T09:05:28.666Z,17.23
2019-02-20T09:07:33.760Z,32.73
2019-02-20T09:09:38.017Z,32.80
2019-02-20T09:11:42.696Z,25.03
2019-02-20T09:13:47.441Z,18.57
2019-02-20T09:15:52.057Z,26.47
2019-02-20T09:17:56.508Z,21.53
2019-02-20T09:20:01.156Z,15.27
2019-02-20T09:22:05.228Z,30.20
2019-02-20T09:24:09.065Z,33.77
2019-02-20T09:26:12.976Z,18.80
2019-02-20T09:28:17.435Z,17.53
2019-02-20T09:30:28.365Z,32.67
2019-02-20T09:32:27.863Z,20.63
2019-02-20T09:34:32.428Z,26.90
2019-02-20T09:36:37.233Z,28.60
2019-02-20T09:38:41.696Z,38.87
2019-02-20T09:40:46.646Z,27.20
2019-02-20T09:42:51.564Z,37.50
2019-02-20T09:44:56.357Z,25.93
2019-02-20T09:47:00.730Z,43.17
2019-02-20T09:49:05.014Z,21.00
2019-02-20T09:51:09.108Z,15.20
2019-02-20T09:53:13.697Z,34.33
2019-02-20T09:55:18.225Z,33.57
2019-02-20T09:57:22.599Z,24.70
2019-02-20T09:59:26.545Z,21.70
2019-02-20T10:01:32.165Z,23.30
2019-02-20T10:03:39.389Z,32.10
2019-02-20T10:05:44.215Z,28.47
2019-02-20T10:07:49.075Z,28.90
2019-02-20T10:09:53.775Z,29.97
2019-02-20T10:11:58.239Z,18.20
2019-02-20T10:14:03.884Z,20.70
2019-02-20T10:16:07.882Z,22.10
2019-02-20T10:18:12.315Z,30.03
2019-02-20T10:20:16.900Z,29.50
2019-02-20T10:22:22.102Z,22.47
2019-02-20T10:24:26.059Z,28.60
2019-02-20T10:26:30.541Z,34.47
2019-02-20T10:28:34.511Z,24.80
2019-02-20T10:30:38.696Z,28.50
2019-02-20T10:32:43.811Z,31.27
2019-02-20T10:34:47.987Z,26.20
2019-02-20T10:36:51.823Z,20.47
2019-02-20T10:38:55.780Z,32.57
2019-02-20T10:41:00.202Z,31.83
2019-02-20T10:43:04.467Z,26.27
2019-02-20T10:45:09.436Z,33.17
2019-02-20T10:47:13.834Z,26.87
2019-02-20T10:49:17.984Z,22.67
2019-02-20T10:51:21.942Z,29.23
2019-02-20T10:53:26.083Z,34.27
2019-02-20T10:55:30.598Z,26.93
2019-02-20T10:57:35.419Z,20.83
2019-02-20T10:59:40.308Z,30.93
2019-02-20T11:01:45.097Z,33.10
2019-02-20T11:03:49.611Z,28.40
2019-02-20T11:05:54.496Z,34.50
2019-02-20T11:07:58.643Z,21.67
2019-02-20T11:10:02.593Z,29.40
2019-02-20T11:12:06.463Z,22.40
2019-02-20T11:14:10.783Z,38.43
2019-02-20T11:16:14.704Z,19.07
2019-02-20T11:18:18.606Z,33.83
2019-02-20T11:20:22.502Z,32.23
2019-02-20T11:22:27.928Z,23.03
2019-02-20T11:24:32.995Z,30.20
2019-02-20T11:26:50.314Z,32.80
2019-02-20T11:28:43.426Z,22.20
2019-02-20T11:30:48.260Z,26.10
2019-02-20T11:32:52.362Z,27.27
2019-02-20T11:34:56.915Z,34.43
2019-02-20T11:37:01.555Z,29.80
2019-02-20T11:39:06.452Z,15.17
2019-02-20T11:41:13.424Z,30.70
2019-02-20T11:43:17.709Z,23.80
2019-02-20T11:45:21.711Z,30.73
2019-02-20T11:47:26.543Z,30.50
2019-02-20T11:49:31.473Z,24.40
2019-02-20T11:51:35.910Z,33.90
2019-02-20T11:53:40.291Z,39.77
2019-02-20T11:55:45.451Z,26.47
2019-02-20T11:57:49.461Z,27.40
2019-02-20T11:59:54.119Z,26.23
2019-02-20T12:01:58.807Z,24.30
2019-02-20T12:04:03.835Z,31.57
2019-02-20T12:06:08.457Z,20.07
2019-02-20T12:08:13.184Z,21.23
2019-02-20T12:10:18.864Z,16.57
2019-02-20T12:12:22.864Z,22.87
2019-02-20T12:14:27.079Z,20.50
2019-02-20T12:16:31.943Z,41.87
2019-02-20T12:18:36.562Z,28.03
2019-02-20T12:20:41.404Z,28.90
2019-02-20T12:22:45.285Z,40.40
2019-02-20T12:24:49.503Z,34.00
2019-02-20T12:26:53.956Z,22.20
2019-02-20T12:28:58.188Z,30.70
2019-02-20T12:31:02.107Z,32.63
2019-02-20T12:33:06.717Z,28.57
2019-02-20T12:35:11.255Z,36.43
2019-02-20T12:37:15.858Z,40.97
2019-02-20T12:39:20.074Z,20.07
2019-02-20T12:41:24.152Z,27.77
2019-02-20T12:43:28.510Z,32.53
2019-02-20T12:45:33.109Z,29.50
2019-02-20T12:47:37.091Z,40.47
2019-02-20T12:49:41.211Z,27.03
2019-02-20T12:51:45.307Z,40.77
2019-02-20T12:53:49.760Z,33.27
2019-02-20T12:55:53.631Z,31.00
2019-02-20T12:57:57.554Z,30.60
2019-02-20T13:00:01.839Z,29.93
2019-02-20T13:02:06.215Z,40.03
2019-02-20T13:04:11.591Z,40.60
2019-02-20T13:06:15.887Z,26.67
2019-02-20T13:08:21.667Z,36.47
2019-02-20T13:10:25.711Z,41.40
2019-02-20T13:12:30.513Z,32.00
2019-02-20T13:14:34.635Z,34.90
2019-02-20T13:16:38.741Z,39.50
2019-02-20T13:18:43.456Z,50.67
2019-02-20T13:20:47.944Z,38.93
2019-02-20T13:22:51.980Z,37.80
2019-02-20T13:24:56.394Z,44.37
2019-02-20T13:27:07.389Z,40.03
2019-02-20T13:29:06.893Z,42.77
2019-02-20T13:31:11.028Z,42.93
2019-02-20T13:33:15.401Z,50.37
2019-02-20T13:35:19.541Z,52.77
2019-02-20T13:37:23.443Z,46.97
2019-02-20T13:39:28.043Z,44.43
2019-02-20T13:41:33.914Z,36.83
2019-02-20T13:43:37.995Z,27.37
2019-02-20T13:45:42.067Z,30.27
2019-02-20T13:47:46.541Z,31.77
2019-02-20T13:49:50.738Z,41.60
2019-02-20T13:51:55.756Z,34.63
2019-02-20T13:53:59.663Z,33.43
2019-02-20T13:56:03.601Z,39.23
2019-02-20T13:58:07.906Z,39.43
2019-02-20T14:00:13.310Z,35.60
2019-02-20T14:02:17.887Z,38.50
2019-02-20T14:04:23.096Z,35.07
2019-02-20T14:06:27.139Z,36.97
2019-02-20T14:08:31.188Z,35.90
2019-02-20T14:10:35.817Z,34.87
2019-02-20T14:12:40.591Z,37.77
2019-02-20T14:14:45.546Z,26.37
2019-02-20T14:16:50.819Z,34.73
2019-02-20T14:18:56.374Z,34.93
2019-02-20T14:21:00.287Z,30.23
2019-02-20T14:23:06.771Z,14.47
2019-02-20T14:25:11.880Z,34.80
2019-02-20T14:27:17.273Z,23.33
2019-02-20T14:29:21.759Z,26.60
2019-02-20T14:31:26.344Z,21.43
2019-02-20T14:33:30.779Z,29.17
2019-02-20T14:35:34.623Z,27.17
2019-02-20T14:37:39.405Z,31.97
2019-02-20T14:39:43.723Z,26.77
2019-02-20T14:41:47.949Z,26.47
2019-02-20T14:43:52.147Z,26.50
2019-02-20T14:45:56.099Z,34.27
2019-02-20T14:48:00.543Z,15.43
2019-02-20T14:50:05.428Z,32.93
2019-02-20T14:52:09.604Z,31.57
2019-02-20T14:54:13.628Z,30.37
2019-02-20T14:56:17.518Z,25.93
2019-02-20T14:58:22.965Z,31.73
2019-02-20T15:00:26.983Z,31.67
2019-02-20T15:02:31.286Z,20.80
2019-02-20T15:04:36.266Z,34.80
2019-02-20T15:06:40.485Z,36.43
2019-02-20T15:08:45.523Z,34.93
2019-02-20T15:10:50.031Z,23.43
2019-02-20T15:12:54.859Z,35.17
2019-02-20T15:14:59.147Z,32.73
2019-02-20T15:17:03.551Z,22.87
2019-02-20T15:19:08.139Z,32.03
2019-02-20T15:21:12.505Z,28.33
2019-02-20T15:23:16.800Z,33.10
2019-02-20T15:25:20.997Z,33.70
2019-02-20T15:27:28.735Z,27.00
2019-02-20T15:29:32.069Z,24.43
2019-02-20T15:31:36.078Z,34.53
2019-02-20T15:33:40.899Z,30.93
2019-02-20T15:35:45.045Z,28.80
2019-02-20T15:37:49.570Z,30.03
2019-02-20T15:39:54.923Z,21.23
2019-02-20T15:41:59.977Z,37.83
2019-02-20T15:44:04.862Z,24.43
2019-02-20T15:46:10.048Z,18.20
2019-02-20T15:48:22.897Z,24.07
2019-02-20T15:50:20.923Z,28.77
2019-02-20T15:52:24.887Z,23.00
2019-02-20T15:54:29.326Z,26.67
2019-02-20T15:56:34.158Z,28.07
2019-02-20T15:58:38.363Z,24.90
2019-02-20T16:00:42.559Z,15.57
2019-02-20T16:02:47.630Z,24.87
2019-02-20T16:04:52.127Z,26.13
2019-02-20T16:06:56.497Z,19.73
2019-02-20T16:09:00.790Z,22.20
2019-02-20T16:11:04.791Z,19.50
2019-02-20T16:13:09.337Z,24.60
2019-02-20T16:15:14.740Z,16.03
2019-02-20T16:17:19.327Z,19.70
2019-02-20T16:19:23.571Z,19.20
2019-02-20T16:21:29.576Z,22.53
2019-02-20T16:23:33.711Z,24.87
2019-02-20T16:25:38.449Z,19.07
2019-02-20T16:27:47.303Z,24.87
2019-02-20T16:29:48.974Z,12.13
2019-02-20T16:31:53.422Z,9.57
2019-02-20T16:33:57.575Z,13.27
2019-02-20T16:36:02.046Z,24.67
2019-02-20T16:38:06.554Z,11.73
2019-02-20T16:40:12.301Z,10.67
2019-02-20T16:42:16.131Z,10.27
2019-02-20T16:44:20.110Z,7.13
2019-02-20T16:46:24.543Z,11.00
2019-02-20T16:48:28.835Z,16.03
2019-02-20T16:50:32.892Z,9.97
2019-02-20T16:52:37.179Z,13.30
2019-02-20T16:54:42.951Z,9.03
2019-02-20T16:56:47.235Z,7.60
2019-02-20T16:58:51.327Z,13.77
2019-02-20T17:00:55.999Z,10.30
2019-02-20T17:03:00.211Z,9.30
2019-02-20T17:05:05.435Z,9.40
2019-02-20T17:07:09.357Z,6.97
2019-02-20T17:09:13.579Z,8.97
2019-02-20T17:11:19.011Z,6.03
2019-02-20T17:13:23.499Z,11.07
2019-02-20T17:15:28.187Z,10.60
2019-02-20T17:17:32.880Z,6.63
2019-02-20T17:19:37.067Z,10.70
2019-02-20T17:21:41.484Z,4.33
2019-02-20T17:23:46.326Z,6.57
2019-02-20T17:25:52.027Z,9.00
2019-02-20T17:27:55.955Z,7.50
2019-02-20T17:30:00.330Z,10.43
2019-02-20T17:32:04.792Z,9.00
2019-02-20T17:34:09.223Z,12.57
2019-02-20T17:36:13.304Z,12.63
2019-02-20T17:38:18.208Z,15.57
2019-02-20T17:40:23.232Z,9.10
2019-02-20T17:42:27.339Z,11.00
2019-02-20T17:44:31.995Z,7.40
2019-02-20T17:46:36.426Z,17.47
2019-02-20T17:48:41.606Z,7.47
2019-02-20T17:50:46.480Z,15.00
2019-02-20T17:52:51.117Z,12.00
2019-02-20T17:54:55.141Z,8.80
2019-02-20T17:56:59.050Z,8.60
2019-02-20T17:59:04.811Z,9.90
2019-02-20T18:01:15.783Z,8.23
2019-02-20T18:03:20.380Z,12.23
2019-02-20T18:05:25.233Z,16.83
2019-02-20T18:07:29.568Z,14.03
2019-02-20T18:09:35.047Z,10.33
2019-02-20T18:11:39.361Z,4.70
2019-02-20T18:13:43.442Z,9.53
2019-02-20T18:15:47.875Z,8.33
2019-02-20T18:17:52.039Z,6.67
2019-02-20T18:19:56.578Z,12.90
2019-02-20T18:22:01.798Z,6.20
2019-02-20T18:24:05.711Z,6.80
2019-02-20T18:26:10.218Z,13.40
2019-02-20T18:28:23.772Z,5.30
2019-02-20T18:30:20.838Z,8.20
2019-02-20T18:32:24.795Z,11.83
2019-02-20T18:34:29.936Z,8.47
2019-02-20T18:36:34.042Z,20.07
2019-02-20T18:38:38.132Z,7.00
2019-02-20T18:40:41.962Z,11.47
2019-02-20T18:42:45.896Z,5.23
2019-02-20T18:44:50.317Z,7.83
2019-02-20T18:46:56.593Z,11.40
2019-02-20T18:49:01.099Z,12.47
2019-02-20T18:51:05.124Z,4.63
2019-02-20T18:53:09.828Z,6.20
2019-02-20T18:55:14.341Z,8.30
2019-02-20T18:57:18.168Z,5.77
2019-02-20T18:59:22.619Z,9.20
2019-02-20T19:01:26.725Z,6.80
2019-02-20T19:03:31.370Z,15.87
2019-02-20T19:05:35.986Z,13.40
2019-02-20T19:07:40.583Z,5.10
2019-02-20T19:09:47.639Z,9.00
2019-02-20T19:12:29.931Z,9.50
2019-02-20T19:15:06.623Z,12.23
2019-02-20T19:17:47.747Z,9.30
2019-02-20T19:20:05.636Z,9.40
2019-02-20T19:22:54.795Z,11.03
2019-02-20T19:25:41.735Z,8.20
2019-02-20T19:27:57.975Z,9.80
2019-02-20T19:30:27.064Z,5.20
2019-02-20T19:32:55.618Z,15.60
2019-02-20T19:35:25.910Z,10.50
2019-02-20T19:38:05.909Z,7.87
2019-02-20T19:40:46.747Z,8.07
2019-02-20T19:43:12.171Z,8.50
2019-02-20T19:46:19.038Z,7.00
2019-02-20T19:48:57.907Z,12.50
2019-02-20T19:51:22.076Z,7.63
2019-02-20T19:53:42.587Z,14.73
2019-02-20T19:56:30.979Z,9.57
2019-02-20T19:59:14.999Z,9.70
2019-02-20T20:01:54.630Z,10.33
2019-02-20T20:04:26.919Z,4.93
2019-02-20T20:06:52.978Z,12.40
2019-02-20T20:09:19.992Z,10.33
2019-02-20T20:11:49.721Z,10.73
2019-02-20T20:14:48.295Z,11.93
2019-02-20T20:17:37.036Z,5.27
2019-02-20T20:20:18.881Z,13.10
2019-02-20T20:22:58.307Z,8.27
2019-02-20T20:25:30.712Z,9.07
2019-02-20T20:28:10.051Z,9.33
2019-02-20T20:31:13.697Z,8.73
2019-02-20T20:33:43.550Z,8.90
2019-02-20T20:36:16.698Z,6.00
2019-02-20T20:38:54.467Z,10.60
2019-02-20T20:41:30.352Z,6.20
2019-02-20T20:44:05.745Z,24.93
2019-02-20T20:46:38.699Z,17.70
2019-02-20T20:49:06.135Z,12.87
2019-02-20T20:52:09.639Z,9.20
2019-02-20T20:54:54.567Z,13.10
2019-02-20T20:57:48.980Z,11.73
2019-02-20T21:00:30.230Z,7.70
2019-02-20T21:02:44.555Z,12.53
2019-02-20T21:05:08.589Z,12.83
2019-02-20T21:07:41.328Z,12.10
2019-02-20T21:10:21.827Z,8.23
2019-02-20T21:12:53.774Z,9.60
2019-02-20T21:15:23.056Z,9.43
2019-02-20T21:17:46.039Z,13.07
2019-02-20T21:20:11.339Z,9.10
2019-02-20T21:22:39.334Z,9.83
2019-02-20T21:25:21.426Z,10.17
2019-02-20T21:28:02.748Z,10.90
2019-02-20T21:30:27.277Z,13.60
2019-02-20T21:33:10.323Z,5.37
2019-02-20T21:35:49.636Z,14.40
2019-02-20T21:38:41.226Z,13.60
2019-02-20T21:41:07.995Z,12.13
2019-02-20T21:43:46.737Z,18.00
2019-02-20T21:46:31.327Z,13.33
2019-02-20T21:49:16.999Z,11.67
2019-02-20T21:51:39.660Z,9.80
2019-02-20T21:54:12.163Z,18.33
2019-02-20T21:56:45.089Z,8.73
2019-02-20T21:59:26.399Z,13.40
2019-02-20T22:01:55.312Z,16.00
2019-02-20T22:04:16.087Z,14.20
2019-02-20T22:06:53.340Z,19.83
2019-02-20T22:09:38.499Z,7.57
2019-02-20T22:12:03.626Z,13.23
2019-02-20T22:14:29.516Z,10.70
2019-02-20T22:17:03.275Z,10.60
2019-02-20T22:19:57.807Z,7.27
2019-02-20T22:22:25.145Z,16.00
2019-02-20T22:24:55.723Z,10.10
2019-02-20T22:27:30.839Z,12.80
2019-02-20T22:29:52.366Z,8.90
2019-02-20T22:32:35.212Z,21.90
2019-02-20T22:35:14.593Z,20.77
2019-02-20T22:37:41.695Z,16.60
2019-02-20T22:40:28.084Z,10.50
2019-02-20T22:43:12.234Z,13.17
2019-02-20T22:46:10.533Z,29.07
2019-02-20T22:48:59.897Z,15.27
2019-02-20T22:51:27.891Z,13.17
2019-02-20T22:54:06.711Z,9.97
2019-02-20T22:56:26.180Z,10.60
2019-02-20T22:58:52.483Z,12.00
2019-02-20T23:01:22.190Z,9.07
2019-02-20T23:04:03.331Z,21.33
2019-02-20T23:06:57.251Z,9.20
2019-02-20T23:09:18.327Z,13.43
2019-02-20T23:11:45.001Z,19.97
2019-02-20T23:14:30.707Z,16.93
2019-02-20T23:16:39.713Z,14.70
2019-02-20T23:18:44.382Z,14.80
2019-02-20T23:20:52.147Z,25.27
2019-02-20T23:22:59.631Z,13.90
2019-02-20T23:25:04.703Z,11.67
2019-02-20T23:27:09.229Z,18.97
2019-02-20T23:29:14.884Z,10.97
2019-02-20T23:31:18.876Z,10.87
2019-02-20T23:33:23.358Z,13.97
2019-02-20T23:35:28.199Z,15.30
2019-02-20T23:37:32.331Z,13.00
2019-02-20T23:39:36.897Z,17.63
2019-02-20T23:41:40.763Z,17.13
2019-02-20T23:43:44.856Z,13.10
2019-02-20T23:45:49.291Z,14.50
2019-02-20T23:47:53.968Z,10.80
2019-02-20T23:49:58.664Z,16.90
2019-02-20T23:52:02.593Z,12.37
2019-02-20T23:54:07.115Z,20.40
2019-02-20T23:56:12.040Z,22.37
2019-02-20T23:58:15.879Z,16.77
